sensor_id;sensor_type;location;lat;lon;timestamp;pressure;altitude;pressure_sealevel;temperature;humidity
8229;BME280;4155;50.118;8.714;2022-10-15T00:01:44;99279.44;;;15.19;100.00
8229;BME280;4155;50.118;8.714;2022-10-15T00:04:11;99277.22;;;15.16;100.00
8229;BME280;4155;50.118;8.714;2022-10-15T00:06:39;99281.56;;;15.17;100.00
8229;BME280;4155;50.118;8.714;2022-10-15T00:09:07;99281.06;;;15.20;100.00
8229;BME280;4155;50.118;8.714;2022-10-15T00:11:35;99289.09;;;15.15;100.00
8229;BME280;4155;50.118;8.714;2022-10-15T00:14:02;99291.63;;;15.04;100.00
8229;BME280;4155;50.118;8.714;2022-10-15T00:16:30;99279.25;;;15.09;100.00
8229;BME280;4155;50.118;8.714;2022-10-15T00:19:00;99275.28;;;15.11;100.00
8229;BME280;4155;50.118;8.714;2022-10-15T00:21:31;99275.84;;;15.13;100.00
8229;BME280;4155;50.118;8.714;2022-10-15T00:23:58;99268.88;;;15.17;100.00
8229;BME280;4155;50.118;8.714;2022-10-15T00:26:27;99264.66;;;15.21;100.00
8229;BME280;4155;50.118;8.714;2022-10-15T00:28:57;99267.09;;;15.23;100.00
8229;BME280;4155;50.118;8.714;2022-10-15T00:31:27;99269.78;;;15.23;100.00
8229;BME280;4155;50.118;8.714;2022-10-15T00:33:57;99268.63;;;15.19;100.00
8229;BME280;4155;50.118;8.714;2022-10-15T00:36:28;99272.75;;;15.21;100.00
8229;BME280;4155;50.118;8.714;2022-10-15T00:38:57;99266.75;;;15.19;100.00
8229;BME280;4155;50.118;8.714;2022-10-15T00:41:29;99266.53;;;15.21;100.00
8229;BME280;4155;50.118;8.714;2022-10-15T00:43:59;99270.38;;;15.25;100.00
8229;BME280;4155;50.118;8.714;2022-10-15T00:46:31;99270.22;;;15.31;100.00
8229;BME280;4155;50.118;8.714;2022-10-15T00:49:02;99267.91;;;15.23;100.00
8229;BME280;4155;50.118;8.714;2022-10-15T00:51:39;99268.97;;;15.22;100.00
8229;BME280;4155;50.118;8.714;2022-10-15T00:54:09;99266.53;;;15.21;100.00
8229;BME280;4155;50.118;8.714;2022-10-15T00:56:39;99265.84;;;15.30;100.00
8229;BME280;4155;50.118;8.714;2022-10-15T00:59:10;99259.06;;;15.28;100.00
8229;BME280;4155;50.118;8.714;2022-10-15T01:01:40;99265.84;;;15.30;100.00
8229;BME280;4155;50.118;8.714;2022-10-15T01:04:09;99254.72;;;15.27;100.00
8229;BME280;4155;50.118;8.714;2022-10-15T01:06:40;99252.34;;;15.30;100.00
8229;BME280;4155;50.118;8.714;2022-10-15T01:09:08;99248.25;;;15.28;100.00
8229;BME280;4155;50.118;8.714;2022-10-15T01:11:39;99248.34;;;15.33;100.00
8229;BME280;4155;50.118;8.714;2022-10-15T01:14:24;99251.44;;;15.25;100.00
8229;BME280;4155;50.118;8.714;2022-10-15T01:16:58;99247.75;;;15.31;100.00
8229;BME280;4155;50.118;8.714;2022-10-15T01:19:54;99242.34;;;15.31;100.00
8229;BME280;4155;50.118;8.714;2022-10-15T01:22:47;99241.63;;;15.19;100.00
8229;BME280;4155;50.118;8.714;2022-10-15T01:25:28;99247.94;;;15.24;100.00
8229;BME280;4155;50.118;8.714;2022-10-15T01:28:05;99246.38;;;15.28;100.00
8229;BME280;4155;50.118;8.714;2022-10-15T01:30:44;99238.75;;;15.25;100.00
8229;BME280;4155;50.118;8.714;2022-10-15T01:33:25;99237.94;;;15.25;100.00
8229;BME280;4155;50.118;8.714;2022-10-15T01:36:01;99245.00;;;15.26;100.00
8229;BME280;4155;50.118;8.714;2022-10-15T01:38:48;99245.00;;;15.26;100.00
8229;BME280;4155;50.118;8.714;2022-10-15T01:41:25;99247.69;;;15.26;100.00
8229;BME280;4155;50.118;8.714;2022-10-15T01:43:58;99239.50;;;15.21;100.00
8229;BME280;4155;50.118;8.714;2022-10-15T01:46:32;99239.50;;;15.21;100.00
8229;BME280;4155;50.118;8.714;2022-10-15T01:49:03;99242.53;;;15.24;100.00
8229;BME280;4155;50.118;8.714;2022-10-15T01:51:34;99234.03;;;15.16;100.00
8229;BME280;4155;50.118;8.714;2022-10-15T01:54:07;99233.53;;;15.19;100.00
8229;BME280;4155;50.118;8.714;2022-10-15T01:56:39;99230.16;;;15.28;100.00
8229;BME280;4155;50.118;8.714;2022-10-15T01:59:09;99218.22;;;15.24;100.00
8229;BME280;4155;50.118;8.714;2022-10-15T02:01:41;99219.03;;;15.25;100.00
8229;BME280;4155;50.118;8.714;2022-10-15T02:04:18;99223.06;;;15.22;100.00
8229;BME280;4155;50.118;8.714;2022-10-15T02:06:49;99225.41;;;15.19;100.00
8229;BME280;4155;50.118;8.714;2022-10-15T02:09:28;99220.84;;;15.19;100.00
8229;BME280;4155;50.118;8.714;2022-10-15T02:12:05;99223.88;;;15.23;100.00
8229;BME280;4155;50.118;8.714;2022-10-15T02:14:54;99219.03;;;15.25;100.00
8229;BME280;4155;50.118;8.714;2022-10-15T02:17:30;99213.38;;;15.26;100.00
8229;BME280;4155;50.118;8.714;2022-10-15T02:20:05;99217.41;;;15.24;100.00
8229;BME280;4155;50.118;8.714;2022-10-15T02:22:42;99218.78;;;15.26;100.00
8229;BME280;4155;50.118;8.714;2022-10-15T02:25:15;99227.72;;;15.27;100.00
8229;BME280;4155;50.118;8.714;2022-10-15T02:27:47;99231.53;;;15.31;100.00
8229;BME280;4155;50.118;8.714;2022-10-15T02:30:16;99234.03;;;15.32;100.00
8229;BME280;4155;50.118;8.714;2022-10-15T02:32:49;99224.75;;;15.28;100.00
8229;BME280;4155;50.118;8.714;2022-10-15T02:35:20;99225.31;;;15.30;100.00
8229;BME280;4155;50.118;8.714;2022-10-15T02:37:50;99231.47;;;15.26;100.00
8229;BME280;4155;50.118;8.714;2022-10-15T02:40:21;99226.66;;;15.28;100.00
8229;BME280;4155;50.118;8.714;2022-10-15T02:42:53;99235.91;;;15.15;100.00
8229;BME280;4155;50.118;8.714;2022-10-15T02:45:20;99227.56;;;15.17;100.00
8229;BME280;4155;50.118;8.714;2022-10-15T02:47:49;99237.38;;;15.23;100.00
8229;BME280;4155;50.118;8.714;2022-10-15T02:50:17;99239.59;;;15.26;100.00
8229;BME280;4155;50.118;8.714;2022-10-15T02:52:45;99235.25;;;15.25;100.00
8229;BME280;4155;50.118;8.714;2022-10-15T02:55:12;99234.25;;;15.31;100.00
8229;BME280;4155;50.118;8.714;2022-10-15T02:57:40;99230.34;;;15.22;100.00
8229;BME280;4155;50.118;8.714;2022-10-15T03:00:09;99220.00;;;15.19;100.00
8229;BME280;4155;50.118;8.714;2022-10-15T03:02:37;99224.13;;;15.21;100.00
8229;BME280;4155;50.118;8.714;2022-10-15T03:05:07;99216.25;;;15.20;100.00
8229;BME280;4155;50.118;8.714;2022-10-15T03:07:36;99214.97;;;15.22;100.00
8229;BME280;4155;50.118;8.714;2022-10-15T03:10:04;99208.66;;;15.17;100.00
8229;BME280;4155;50.118;8.714;2022-10-15T03:12:32;99204.16;;;15.22;100.00
8229;BME280;4155;50.118;8.714;2022-10-15T03:15:00;99220.09;;;15.24;100.00
8229;BME280;4155;50.118;8.714;2022-10-15T03:17:28;99222.06;;;15.28;100.00
8229;BME280;4155;50.118;8.714;2022-10-15T03:19:56;99228.53;;;15.27;100.00
8229;BME280;4155;50.118;8.714;2022-10-15T03:22:25;99225.56;;;15.29;100.00
8229;BME280;4155;50.118;8.714;2022-10-15T03:24:53;99219.91;;;15.30;100.00
8229;BME280;4155;50.118;8.714;2022-10-15T03:27:20;99219.84;;;15.25;100.00
8229;BME280;4155;50.118;8.714;2022-10-15T03:29:48;99228.28;;;15.29;100.00
8229;BME280;4155;50.118;8.714;2022-10-15T03:32:16;99230.25;;;15.33;100.00
8229;BME280;4155;50.118;8.714;2022-10-15T03:34:44;99222.97;;;15.34;100.00
8229;BME280;4155;50.118;8.714;2022-10-15T03:37:11;99225.66;;;15.34;100.00
8229;BME280;4155;50.118;8.714;2022-10-15T03:39:43;99235.09;;;15.31;100.00
8229;BME280;4155;50.118;8.714;2022-10-15T03:42:11;99239.91;;;15.29;100.00
8229;BME280;4155;50.118;8.714;2022-10-15T03:44:38;99246.38;;;15.28;100.00
8229;BME280;4155;50.118;8.714;2022-10-15T03:47:06;99245.25;;;15.24;100.00
8229;BME280;4155;50.118;8.714;2022-10-15T03:49:34;99240.97;;;15.28;100.00
8229;BME280;4155;50.118;8.714;2022-10-15T03:52:01;99241.22;;;15.27;100.00
8229;BME280;4155;50.118;8.714;2022-10-15T03:54:29;99241.22;;;15.27;100.00
8229;BME280;4155;50.118;8.714;2022-10-15T03:56:58;99245.56;;;15.28;100.00
8229;BME280;4155;50.118;8.714;2022-10-15T03:59:28;99243.34;;;15.25;100.00
8229;BME280;4155;50.118;8.714;2022-10-15T04:01:56;99244.91;;;15.21;100.00
8229;BME280;4155;50.118;8.714;2022-10-15T04:04:24;99242.22;;;15.21;100.00
8229;BME280;4155;50.118;8.714;2022-10-15T04:06:52;99242.78;;;15.23;100.00
8229;BME280;4155;50.118;8.714;2022-10-15T04:09:20;99244.41;;;15.24;100.00
8229;BME280;4155;50.118;8.714;2022-10-15T04:11:47;99238.91;;;15.19;100.00
8229;BME280;4155;50.118;8.714;2022-10-15T04:14:16;99243.50;;;15.18;100.00
8229;BME280;4155;50.118;8.714;2022-10-15T04:16:45;99240.50;;;15.15;100.00
8229;BME280;4155;50.118;8.714;2022-10-15T04:19:13;99247.53;;;15.16;100.00
8229;BME280;4155;50.118;8.714;2022-10-15T04:21:41;99248.84;;;15.13;100.00
8229;BME280;4155;50.118;8.714;2022-10-15T04:24:09;99254.25;;;15.13;100.00
8229;BME280;4155;50.118;8.714;2022-10-15T04:26:36;99257.44;;;15.10;100.00
8229;BME280;4155;50.118;8.714;2022-10-15T04:29:04;99253.59;;;15.23;100.00
8229;BME280;4155;50.118;8.714;2022-10-15T04:31:34;99264.53;;;15.16;100.00
8229;BME280;4155;50.118;8.714;2022-10-15T04:34:02;99266.09;;;15.12;100.00
8229;BME280;4155;50.118;8.714;2022-10-15T04:36:30;99265.84;;;15.14;100.00
8229;BME280;4155;50.118;8.714;2022-10-15T04:38:58;99264.13;;;15.08;100.00
8229;BME280;4155;50.118;8.714;2022-10-15T04:41:26;99263.56;;;15.05;100.00
8229;BME280;4155;50.118;8.714;2022-10-15T04:43:53;99263.81;;;15.04;100.00
8229;BME280;4155;50.118;8.714;2022-10-15T04:46:21;99270.59;;;15.07;100.00
8229;BME280;4155;50.118;8.714;2022-10-15T04:48:51;99271.41;;;15.07;100.00
8229;BME280;4155;50.118;8.714;2022-10-15T04:51:23;99270.34;;;15.08;100.00
8229;BME280;4155;50.118;8.714;2022-10-15T04:53:52;99270.09;;;15.10;100.00
8229;BME280;4155;50.118;8.714;2022-10-15T04:56:21;99263.56;;;15.05;100.00
8229;BME280;4155;50.118;8.714;2022-10-15T04:58:49;99263.56;;;15.05;100.00
8229;BME280;4155;50.118;8.714;2022-10-15T05:01:18;99268.38;;;15.03;100.00
8229;BME280;4155;50.118;8.714;2022-10-15T05:03:47;99275.19;;;15.06;100.00
8229;BME280;4155;50.118;8.714;2022-10-15T05:06:18;99284.19;;;15.12;100.00
8229;BME280;4155;50.118;8.714;2022-10-15T05:08:47;99285.84;;;15.13;100.00
8229;BME280;4155;50.118;8.714;2022-10-15T05:11:18;99283.59;;;15.10;100.00
8229;BME280;4155;50.118;8.714;2022-10-15T05:13:46;99285.84;;;15.13;100.00
8229;BME280;4155;50.118;8.714;2022-10-15T05:16:16;99282.06;;;15.14;100.00
8229;BME280;4155;50.118;8.714;2022-10-15T05:18:45;99284.66;;;15.09;100.00
8229;BME280;4155;50.118;8.714;2022-10-15T05:21:14;99282.88;;;15.14;100.00
8229;BME280;4155;50.118;8.714;2022-10-15T05:23:43;99284.44;;;15.10;100.00
8229;BME280;4155;50.118;8.714;2022-10-15T05:26:13;99282.47;;;15.05;100.00
8229;BME280;4155;50.118;8.714;2022-10-15T05:28:41;99277.72;;;15.13;100.00
8229;BME280;4155;50.118;8.714;2022-10-15T05:31:10;99275.66;;;15.20;100.00
8229;BME280;4155;50.118;8.714;2022-10-15T05:33:44;99288.53;;;15.13;100.00
8229;BME280;4155;50.118;8.714;2022-10-15T05:36:14;99283.59;;;15.10;100.00
8229;BME280;4155;50.118;8.714;2022-10-15T05:38:44;99283.53;;;15.04;100.00
8229;BME280;4155;50.118;8.714;2022-10-15T05:41:12;99289.88;;;14.98;100.00
8229;BME280;4155;50.118;8.714;2022-10-15T05:43:39;99296.47;;;15.02;100.00
8229;BME280;4155;50.118;8.714;2022-10-15T05:46:08;99294.00;;;15.01;100.00
8229;BME280;4155;50.118;8.714;2022-10-15T05:48:35;99308.31;;;15.01;100.00
8229;BME280;4155;50.118;8.714;2022-10-15T05:51:05;99309.84;;;14.97;100.00
8229;BME280;4155;50.118;8.714;2022-10-15T05:53:33;99311.84;;;15.02;100.00
8229;BME280;4155;50.118;8.714;2022-10-15T05:56:04;99321.47;;;14.98;100.00
8229;BME280;4155;50.118;8.714;2022-10-15T05:58:33;99317.00;;;15.03;100.00
8229;BME280;4155;50.118;8.714;2022-10-15T06:01:05;99323.78;;;15.06;100.00
8229;BME280;4155;50.118;8.714;2022-10-15T06:03:34;99314.38;;;15.09;100.00
8229;BME280;4155;50.118;8.714;2022-10-15T06:06:03;99314.97;;;15.11;100.00
8229;BME280;4155;50.118;8.714;2022-10-15T06:08:31;99327.66;;;15.10;100.00
8229;BME280;4155;50.118;8.714;2022-10-15T06:11:02;99330.00;;;15.07;100.00
8229;BME280;4155;50.118;8.714;2022-10-15T06:13:36;99333.88;;;15.11;100.00
8229;BME280;4155;50.118;8.714;2022-10-15T06:16:04;99342.44;;;15.08;100.00
8229;BME280;4155;50.118;8.714;2022-10-15T06:18:32;99345.88;;;15.03;100.00
8229;BME280;4155;50.118;8.714;2022-10-15T06:21:00;99350.94;;;14.99;100.00
8229;BME280;4155;50.118;8.714;2022-10-15T06:23:27;99354.06;;;15.08;100.00
8229;BME280;4155;50.118;8.714;2022-10-15T06:25:56;99356.06;;;15.13;100.00
8229;BME280;4155;50.118;8.714;2022-10-15T06:28:29;99343.13;;;15.15;100.00
8229;BME280;4155;50.118;8.714;2022-10-15T06:30:57;99341.22;;;15.15;100.00
8229;BME280;4155;50.118;8.714;2022-10-15T06:33:26;99358.19;;;15.11;100.00
8229;BME280;4155;50.118;8.714;2022-10-15T06:35:54;99346.25;;;15.23;100.00
8229;BME280;4155;50.118;8.714;2022-10-15T06:38:22;99359.06;;;15.16;100.00
8229;BME280;4155;50.118;8.714;2022-10-15T06:40:50;99357.19;;;15.17;100.00
8229;BME280;4155;50.118;8.714;2022-10-15T06:43:18;99366.69;;;15.19;100.00
8229;BME280;4155;50.118;8.714;2022-10-15T06:45:47;99357.38;;;15.27;100.00
8229;BME280;4155;50.118;8.714;2022-10-15T06:48:15;99371.88;;;15.21;100.00
8229;BME280;4155;50.118;8.714;2022-10-15T06:50:43;99376.34;;;15.15;100.00
8229;BME280;4155;50.118;8.714;2022-10-15T06:53:10;99364.22;;;15.18;100.00
8229;BME280;4155;50.118;8.714;2022-10-15T06:55:38;99378.72;;;15.12;100.00
8229;BME280;4155;50.118;8.714;2022-10-15T06:58:06;99391.53;;;15.04;100.00
8229;BME280;4155;50.118;8.714;2022-10-15T07:00:33;99396.81;;;15.11;100.00
8229;BME280;4155;50.118;8.714;2022-10-15T07:03:07;99400.22;;;15.07;100.00
8229;BME280;4155;50.118;8.714;2022-10-15T07:05:35;99395.78;;;15.00;100.00
8229;BME280;4155;50.118;8.714;2022-10-15T07:08:03;99400.50;;;14.93;100.00
8229;BME280;4155;50.118;8.714;2022-10-15T07:10:31;99402.97;;;14.95;100.00
8229;BME280;4155;50.118;8.714;2022-10-15T07:12:59;99406.00;;;14.98;100.00
8229;BME280;4155;50.118;8.714;2022-10-15T07:15:26;99409.19;;;14.95;100.00
8229;BME280;4155;50.118;8.714;2022-10-15T07:17:55;99410.34;;;14.99;100.00
8229;BME280;4155;50.118;8.714;2022-10-15T07:20:28;99412.81;;;15.01;100.00
8229;BME280;4155;50.118;8.714;2022-10-15T07:22:57;99420.31;;;14.99;100.00
8229;BME280;4155;50.118;8.714;2022-10-15T07:25:26;99412.22;;;14.99;100.00
8229;BME280;4155;50.118;8.714;2022-10-15T07:27:54;99418.28;;;15.06;100.00
8229;BME280;4155;50.118;8.714;2022-10-15T07:30:23;99415.34;;;15.08;100.00
8229;BME280;4155;50.118;8.714;2022-10-15T07:32:54;99418.81;;;15.20;100.00
8229;BME280;4155;50.118;8.714;2022-10-15T07:35:22;99417.53;;;15.22;100.00
8229;BME280;4155;50.118;8.714;2022-10-15T07:37:51;99424.97;;;15.15;100.00
8229;BME280;4155;50.118;8.714;2022-10-15T07:40:18;99432.81;;;15.17;100.00
8229;BME280;4155;50.118;8.714;2022-10-15T07:42:51;99431.44;;;15.31;100.00
8229;BME280;4155;50.118;8.714;2022-10-15T07:45:19;99435.00;;;15.31;100.00
8229;BME280;4155;50.118;8.714;2022-10-15T07:47:46;99426.34;;;15.46;100.00
8229;BME280;4155;50.118;8.714;2022-10-15T07:50:14;99423.56;;;15.58;100.00
8229;BME280;4155;50.118;8.714;2022-10-15T07:52:42;99431.25;;;15.78;100.00
8229;BME280;4155;50.118;8.714;2022-10-15T07:55:11;99433.72;;;15.96;100.00
8229;BME280;4155;50.118;8.714;2022-10-15T07:57:38;99431.56;;;16.15;100.00
8229;BME280;4155;50.118;8.714;2022-10-15T08:00:07;99440.94;;;16.07;100.00
8229;BME280;4155;50.118;8.714;2022-10-15T08:02:35;99447.22;;;16.30;100.00
8229;BME280;4155;50.118;8.714;2022-10-15T08:05:03;99447.38;;;16.23;100.00
8229;BME280;4155;50.118;8.714;2022-10-15T08:07:31;99446.72;;;16.33;100.00
8229;BME280;4155;50.118;8.714;2022-10-15T08:09:59;99447.84;;;16.37;100.00
8229;BME280;4155;50.118;8.714;2022-10-15T08:12:28;99442.53;;;16.42;100.00
8229;BME280;4155;50.118;8.714;2022-10-15T08:14:55;99447.81;;;16.54;100.00
8229;BME280;4155;50.118;8.714;2022-10-15T08:17:23;99441.66;;;16.58;99.07
8229;BME280;4155;50.118;8.714;2022-10-15T08:19:51;99442.47;;;16.59;98.88
8229;BME280;4155;50.118;8.714;2022-10-15T08:22:18;99454.88;;;16.55;98.53
8229;BME280;4155;50.118;8.714;2022-10-15T08:24:46;99458.50;;;16.60;98.88
8229;BME280;4155;50.118;8.714;2022-10-15T08:27:14;99458.66;;;16.70;98.78
8229;BME280;4155;50.118;8.714;2022-10-15T08:29:43;99461.00;;;16.84;98.09
8229;BME280;4155;50.118;8.714;2022-10-15T08:32:12;99461.38;;;16.92;97.60
8229;BME280;4155;50.118;8.714;2022-10-15T08:34:39;99456.38;;;17.06;97.19
8229;BME280;4155;50.118;8.714;2022-10-15T08:37:07;99458.47;;;16.99;97.04
8229;BME280;4155;50.118;8.714;2022-10-15T08:39:35;99465.06;;;16.86;96.92
8229;BME280;4155;50.118;8.714;2022-10-15T08:42:04;99461.13;;;17.16;96.49
8229;BME280;4155;50.118;8.714;2022-10-15T08:44:38;99469.88;;;17.23;95.89
8229;BME280;4155;50.118;8.714;2022-10-15T08:47:13;99461.84;;;17.33;95.65
8229;BME280;4155;50.118;8.714;2022-10-15T08:49:47;99467.78;;;17.57;95.76
8229;BME280;4155;50.118;8.714;2022-10-15T08:52:22;99460.84;;;17.93;93.51
8229;BME280;4155;50.118;8.714;2022-10-15T08:54:52;99462.09;;;17.80;92.98
8229;BME280;4155;50.118;8.714;2022-10-15T08:57:31;99469.34;;;17.75;93.47
8229;BME280;4155;50.118;8.714;2022-10-15T09:00:07;99471.50;;;17.73;94.02
8229;BME280;4155;50.118;8.714;2022-10-15T09:02:47;99463.41;;;17.78;93.89
8229;BME280;4155;50.118;8.714;2022-10-15T09:05:31;99473.38;;;17.72;94.15
8229;BME280;4155;50.118;8.714;2022-10-15T09:08:09;99470.34;;;17.96;94.13
8229;BME280;4155;50.118;8.714;2022-10-15T09:10:43;99471.66;;;17.88;94.03
8229;BME280;4155;50.118;8.714;2022-10-15T09:13:15;99479.38;;;17.74;93.79
8229;BME280;4155;50.118;8.714;2022-10-15T09:15:49;99473.31;;;17.94;94.09
8229;BME280;4155;50.118;8.714;2022-10-15T09:18:22;99481.28;;;18.06;93.45
8229;BME280;4155;50.118;8.714;2022-10-15T09:20:52;99484.34;;;18.14;92.53
8229;BME280;4155;50.118;8.714;2022-10-15T09:23:22;99483.53;;;18.14;92.85
8229;BME280;4155;50.118;8.714;2022-10-15T09:25:55;99483.91;;;18.28;92.39
8229;BME280;4155;50.118;8.714;2022-10-15T09:28:27;99481.91;;;18.18;92.50
8229;BME280;4155;50.118;8.714;2022-10-15T09:30:58;99470.69;;;18.04;93.29
8229;BME280;4155;50.118;8.714;2022-10-15T09:33:34;99474.63;;;18.18;92.39
8229;BME280;4155;50.118;8.714;2022-10-15T09:36:14;99470.47;;;18.48;91.78
8229;BME280;4155;50.118;8.714;2022-10-15T09:38:51;99467.81;;;19.11;89.50
8229;BME280;4155;50.118;8.714;2022-10-15T09:41:30;99478.19;;;19.19;88.00
8229;BME280;4155;50.118;8.714;2022-10-15T09:44:01;99475.53;;;19.44;87.46
8229;BME280;4155;50.118;8.714;2022-10-15T09:46:32;99481.56;;;19.51;85.96
8229;BME280;4155;50.118;8.714;2022-10-15T09:49:05;99480.13;;;19.33;85.85
8229;BME280;4155;50.118;8.714;2022-10-15T09:51:39;99482.75;;;19.03;85.55
8229;BME280;4155;50.118;8.714;2022-10-15T09:54:16;99490.22;;;18.75;87.14
8229;BME280;4155;50.118;8.714;2022-10-15T09:56:52;99481.53;;;18.73;88.60
8229;BME280;4155;50.118;8.714;2022-10-15T09:59:21;99490.88;;;18.56;89.17
8229;BME280;4155;50.118;8.714;2022-10-15T10:01:56;99492.25;;;18.53;88.47
8229;BME280;4155;50.118;8.714;2022-10-15T10:04:27;99493.06;;;18.59;88.27
8229;BME280;4155;50.118;8.714;2022-10-15T10:06:57;99491.00;;;18.71;87.76
8229;BME280;4155;50.118;8.714;2022-10-15T10:09:28;99487.63;;;18.54;88.61
8229;BME280;4155;50.118;8.714;2022-10-15T10:11:59;99479.47;;;18.54;88.07
8229;BME280;4155;50.118;8.714;2022-10-15T10:14:30;99478.00;;;18.78;88.08
8229;BME280;4155;50.118;8.714;2022-10-15T10:17:07;99474.16;;;18.69;88.04
8229;BME280;4155;50.118;8.714;2022-10-15T10:19:40;99481.44;;;18.63;88.93
8229;BME280;4155;50.118;8.714;2022-10-15T10:22:13;99479.81;;;18.62;89.68
8229;BME280;4155;50.118;8.714;2022-10-15T10:24:42;99480.78;;;18.83;88.27
8229;BME280;4155;50.118;8.714;2022-10-15T10:27:18;99490.66;;;19.10;87.41
8229;BME280;4155;50.118;8.714;2022-10-15T10:29:52;99492.06;;;19.22;86.34
8229;BME280;4155;50.118;8.714;2022-10-15T10:32:22;99489.88;;;19.24;85.45
8229;BME280;4155;50.118;8.714;2022-10-15T10:34:51;99493.19;;;19.31;84.53
8229;BME280;4155;50.118;8.714;2022-10-15T10:37:20;99493.16;;;19.16;85.23
8229;BME280;4155;50.118;8.714;2022-10-15T10:39:52;99493.09;;;19.06;85.54
8229;BME280;4155;50.118;8.714;2022-10-15T10:42:27;99494.78;;;18.70;86.80
8229;BME280;4155;50.118;8.714;2022-10-15T10:45:14;99501.72;;;18.50;87.50
8229;BME280;4155;50.118;8.714;2022-10-15T10:47:44;99495.22;;;18.52;87.56
8229;BME280;4155;50.118;8.714;2022-10-15T10:50:28;99497.84;;;18.41;88.58
8229;BME280;4155;50.118;8.714;2022-10-15T10:52:56;99494.53;;;18.34;89.02
8229;BME280;4155;50.118;8.714;2022-10-15T10:55:33;99489.78;;;18.14;89.38
8229;BME280;4155;50.118;8.714;2022-10-15T10:58:03;99496.06;;;18.20;89.00
8229;BME280;4155;50.118;8.714;2022-10-15T11:00:35;99483.91;;;17.96;90.59
8229;BME280;4155;50.118;8.714;2022-10-15T11:03:05;99494.00;;;17.73;91.45
8229;BME280;4155;50.118;8.714;2022-10-15T11:05:41;99487.28;;;17.76;92.12
8229;BME280;4155;50.118;8.714;2022-10-15T11:08:16;99486.94;;;17.72;92.28
8229;BME280;4155;50.118;8.714;2022-10-15T11:10:51;99480.97;;;17.70;93.02
8229;BME280;4155;50.118;8.714;2022-10-15T11:13:33;99481.84;;;17.76;92.45
8229;BME280;4155;50.118;8.714;2022-10-15T11:16:10;99477.47;;;17.75;92.77
8229;BME280;4155;50.118;8.714;2022-10-15T11:18:55;99474.91;;;17.63;93.90
8229;BME280;4155;50.118;8.714;2022-10-15T11:21:45;99471.56;;;17.78;94.20
8229;BME280;4155;50.118;8.714;2022-10-15T11:24:21;99463.84;;;17.97;94.01
8229;BME280;4155;50.118;8.714;2022-10-15T11:27:19;99467.13;;;18.36;91.72
8229;BME280;4155;50.118;8.714;2022-10-15T11:29:54;99465.13;;;18.63;90.42
8229;BME280;4155;50.118;8.714;2022-10-15T11:32:33;99451.03;;;19.29;87.47
8229;BME280;4155;50.118;8.714;2022-10-15T11:35:33;99454.63;;;19.50;85.95
8229;BME280;4155;50.118;8.714;2022-10-15T11:38:28;99452.72;;;19.50;86.00
8229;BME280;4155;50.118;8.714;2022-10-15T11:41:10;99451.09;;;19.49;85.35
8229;BME280;4155;50.118;8.714;2022-10-15T11:43:54;99453.47;;;19.20;85.34
8229;BME280;4155;50.118;8.714;2022-10-15T11:46:34;99447.94;;;19.00;87.20
8229;BME280;4155;50.118;8.714;2022-10-15T11:49:28;99451.44;;;18.90;87.00
8229;BME280;4155;50.118;8.714;2022-10-15T11:52:08;99436.44;;;18.72;87.44
8229;BME280;4155;50.118;8.714;2022-10-15T11:54:42;99438.28;;;18.67;88.26
8229;BME280;4155;50.118;8.714;2022-10-15T11:57:15;99437.94;;;18.58;89.03
8229;BME280;4155;50.118;8.714;2022-10-15T11:59:48;99435.56;;;18.67;88.90
8229;BME280;4155;50.118;8.714;2022-10-15T12:02:21;99438.78;;;18.64;88.74
8229;BME280;4155;50.118;8.714;2022-10-15T12:04:52;99432.00;;;18.61;88.79
8229;BME280;4155;50.118;8.714;2022-10-15T12:07:24;99431.84;;;18.36;89.73
8229;BME280;4155;50.118;8.714;2022-10-15T12:10:00;99439.66;;;18.27;90.95
8229;BME280;4155;50.118;8.714;2022-10-15T12:12:36;99423.88;;;18.24;90.95
8229;BME280;4155;50.118;8.714;2022-10-15T12:15:15;99432.22;;;18.12;91.67
8229;BME280;4155;50.118;8.714;2022-10-15T12:17:50;99427.28;;;18.04;92.24
8229;BME280;4155;50.118;8.714;2022-10-15T12:20:22;99423.91;;;17.87;93.15
8229;BME280;4155;50.118;8.714;2022-10-15T12:22:56;99415.31;;;18.00;92.73
8229;BME280;4155;50.118;8.714;2022-10-15T12:25:42;99421.47;;;17.90;92.80
8229;BME280;4155;50.118;8.714;2022-10-15T12:28:16;99408.69;;;17.86;93.32
8229;BME280;4155;50.118;8.714;2022-10-15T12:30:59;99411.38;;;17.86;94.07
8229;BME280;4155;50.118;8.714;2022-10-15T12:33:32;99407.91;;;17.90;94.68
8229;BME280;4155;50.118;8.714;2022-10-15T12:36:02;99411.53;;;18.06;94.17
8229;BME280;4155;50.118;8.714;2022-10-15T12:38:35;99411.00;;;18.04;94.39
8229;BME280;4155;50.118;8.714;2022-10-15T12:41:08;99413.34;;;17.90;95.17
8229;BME280;4155;50.118;8.714;2022-10-15T12:43:39;99409.75;;;17.85;95.79
8229;BME280;4155;50.118;8.714;2022-10-15T12:46:08;99403.75;;;17.78;96.17
8229;BME280;4155;50.118;8.714;2022-10-15T12:48:39;99404.56;;;17.78;96.32
8229;BME280;4155;50.118;8.714;2022-10-15T12:51:28;99398.81;;;17.75;96.91
8229;BME280;4155;50.118;8.714;2022-10-15T12:53:56;99395.00;;;17.71;96.91
8229;BME280;4155;50.118;8.714;2022-10-15T12:56:36;99385.38;;;17.58;97.79
8229;BME280;4155;50.118;8.714;2022-10-15T12:59:27;99386.22;;;17.63;97.13
8229;BME280;4155;50.118;8.714;2022-10-15T13:01:55;99370.78;;;17.64;97.47
8229;BME280;4155;50.118;8.714;2022-10-15T13:04:35;99370.53;;;17.66;97.67
8229;BME280;4155;50.118;8.714;2022-10-15T13:07:04;99374.69;;;17.73;97.56
8229;BME280;4155;50.118;8.714;2022-10-15T13:09:32;99380.97;;;17.79;97.46
8229;BME280;4155;50.118;8.714;2022-10-15T13:12:01;99382.97;;;17.93;97.54
8229;BME280;4155;50.118;8.714;2022-10-15T13:14:32;99364.31;;;18.02;96.72
8229;BME280;4155;50.118;8.714;2022-10-15T13:17:04;99370.06;;;18.11;96.35
8229;BME280;4155;50.118;8.714;2022-10-15T13:19:35;99369.81;;;18.17;95.69
8229;BME280;4155;50.118;8.714;2022-10-15T13:22:06;99373.94;;;18.25;94.42
8229;BME280;4155;50.118;8.714;2022-10-15T13:24:46;99371.00;;;18.32;93.91
8229;BME280;4155;50.118;8.714;2022-10-15T13:27:21;99373.94;;;18.20;93.67
8229;BME280;4155;50.118;8.714;2022-10-15T13:29:54;99372.38;;;17.92;94.90
8229;BME280;4155;50.118;8.714;2022-10-15T13:32:22;99372.44;;;17.97;95.67
8229;BME280;4155;50.118;8.714;2022-10-15T13:34:52;99371.09;;;18.05;95.31
8229;BME280;4155;50.118;8.714;2022-10-15T13:37:25;99374.88;;;17.99;95.06
8229;BME280;4155;50.118;8.714;2022-10-15T13:39:56;99372.44;;;17.97;94.49